Genie — WDF8288 — position and weather

sailwx.info

Track history (hours):
 
Tides and Currents Weather Stations Pressure Air Temp Water Temp Dewpoint Dewpoint Depression Visibility Wind Speed Wind Dir Waves Ship Positions

Genie

Owner: Enterprise Marine Services, LLC, San Antonio, TX. More information available from US FCC via Universal Licensing System and Coast Guard Vessel Documentation Center.

Last reported at 2018-Feb-21 10:26 UTC. Time now 2018-Feb-22 18:42 UTC.
Position N 32°45' W 091°09'.

Length 34 m; draft 2.9 m.

Type: . MMSI: 367407750.

Date/timePositionNaut miles runAvg speedWind from/ knotsBaromVisibWave heightAir tempDewpointWater temp
2018-Feb-21 10:26N 32°45' W 091°09'6 2.4
2018-Feb-21 08:01N 32°41' W 091°05'0 4.5
2018-Feb-21 07:57N 32°41' W 091°06'2 4.7
2018-Feb-21 07:30N 32°40' W 091°08'2 4.6
2018-Feb-21 06:59N 32°38' W 091°09'2 4.4
2018-Feb-21 06:30N 32°36' W 091°08'2 4.1
2018-Feb-21 06:00N 32°34' W 091°07'2 4.3
2018-Feb-21 05:30N 32°32' W 091°06'3 4.9
2018-Feb-21 04:59N 32°30' W 091°07'2 4.9
2018-Feb-21 04:30N 32°28' W 091°06'2 4.7
2018-Feb-21 04:00N 32°26' W 091°04'2 4.5
2018-Feb-21 03:30N 32°26' W 091°01'2 4.1
2018-Feb-21 03:00N 32°24' W 090°59'2 4.5
2018-Feb-21 02:30N 32°22' W 091°00'2 3.8
2018-Feb-21 02:01N 32°21' W 090°58'2 4.7
2018-Feb-21 01:30N 32°21' W 090°56'2 4.0
2018-Feb-21 01:00N 32°21' W 090°53'2 4.4
2018-Feb-21 00:30N 32°23' W 090°53'0 0.9
2018-Feb-21 00:00N 32°23' W 090°53'0 0.1
2018-Feb-20 23:30N 32°23' W 090°53'0 0.0
2018-Feb-20 23:00N 32°23' W 090°53'0 0.0
2018-Feb-20 22:30N 32°23' W 090°53'0 0.0
2018-Feb-20 22:00N 32°23' W 090°53'0 0.0
2018-Feb-20 21:30N 32°23' W 090°53'0 0.0
2018-Feb-20 21:00N 32°23' W 090°53'0 0.0
2018-Feb-20 20:30N 32°23' W 090°53'0 0.0
2018-Feb-20 20:00N 32°23' W 090°53'0 0.0
2018-Feb-20 19:30N 32°23' W 090°53'0 0.0
2018-Feb-20 19:00N 32°23' W 090°53'0 0.0
2018-Feb-20 18:30N 32°23' W 090°53'0 0.0
2018-Feb-20 18:00N 32°23' W 090°53'0 0.0
2018-Feb-20 17:30N 32°23' W 090°53'0 0.0
2018-Feb-20 17:00N 32°23' W 090°53'0 0.0
2018-Feb-20 16:30N 32°23' W 090°53'0 0.0
2018-Feb-20 16:00N 32°23' W 090°53'0 0.0
2018-Feb-20 15:30N 32°23' W 090°53'0 0.0
2018-Feb-20 15:00N 32°23' W 090°53'0 0.0
2018-Feb-20 14:30N 32°23' W 090°53'0 0.0
2018-Feb-20 14:00N 32°23' W 090°53'0 0.0
2018-Feb-20 13:30N 32°23' W 090°53'0 0.0
2018-Feb-20 13:00N 32°23' W 090°53'0 0.0
2018-Feb-20 12:30N 32°23' W 090°53'0 0.0
2018-Feb-20 11:59N 32°23' W 090°53'0 0.0
2018-Feb-20 11:30N 32°23' W 090°53'0 0.0
2018-Feb-20 11:00N 32°23' W 090°53'0 0.0
2018-Feb-20 10:30N 32°23' W 090°53'0 0.0
2018-Feb-20 10:00N 32°23' W 090°53'0 0.0
2018-Feb-20 09:30N 32°23' W 090°53'0 0.0
2018-Feb-20 09:00N 32°23' W 090°53'0 0.0
2018-Feb-20 08:30N 32°23' W 090°53'0 0.0
2018-Feb-20 08:00N 32°23' W 090°53'0 0.0
2018-Feb-20 07:30N 32°23' W 090°53'0 0.0
2018-Feb-20 07:00N 32°23' W 090°53'0 0.0
2018-Feb-20 06:29N 32°23' W 090°53'0 0.0
2018-Feb-20 06:00N 32°23' W 090°53'0 0.0
2018-Feb-20 05:28N 32°23' W 090°53'0 0.0
2018-Feb-20 05:00N 32°23' W 090°53'0 0.0
2018-Feb-20 04:26N 32°23' W 090°53'0 0.0
2018-Feb-20 04:00N 32°23' W 090°53'0 0.0
2018-Feb-20 03:30N 32°23' W 090°53'0 0.0
2018-Feb-20 02:59N 32°23' W 090°53'0 0.0
2018-Feb-20 02:30N 32°23' W 090°53'0 0.0
2018-Feb-20 02:00N 32°23' W 090°53'0 0.0
2018-Feb-20 01:30N 32°23' W 090°53'0 0.0
2018-Feb-20 01:00N 32°23' W 090°53'0 0.0
2018-Feb-20 00:30N 32°23' W 090°53'0 1.0
2018-Feb-20 00:00N 32°23' W 090°53'2 3.3
2018-Feb-19 23:30N 32°21' W 090°53'2 3.1
2018-Feb-19 23:00N 32°20' W 090°54'1 2.4
2018-Feb-19 22:30N 32°21' W 090°55'2 3.3
2018-Feb-19 22:00N 32°21' W 090°57'4 8.1
2018-Feb-19 21:30N 32°24' W 090°60'611.8
2018-Feb-19 21:00N 32°27' W 091°06'  
Track history (hours):
 
Tides and Currents Weather Stations Pressure Air Temp Water Temp Dewpoint Dewpoint Depression Visibility Wind Speed Wind Dir Waves Ship Positions

Genie

Owner: Enterprise Marine Services, LLC, San Antonio, TX. More information available from US FCC via Universal Licensing System and Coast Guard Vessel Documentation Center.

Last reported at 2018-Feb-21 10:26 UTC. Time now 2018-Feb-22 18:42 UTC.
Position N 32°45' W 091°09'.

Length 34 m; draft 2.9 m.

Type: . MMSI: 367407750.

Date/timePositionNaut miles runAvg speedWind from/ knotsBaromVisibWave heightAir tempDewpointWater temp
2018-Feb-21 10:26N 32°45' W 091°09'6 2.4
2018-Feb-21 08:01N 32°41' W 091°05'0 4.5
2018-Feb-21 07:57N 32°41' W 091°06'2 4.7
2018-Feb-21 07:30N 32°40' W 091°08'2 4.6
2018-Feb-21 06:59N 32°38' W 091°09'2 4.4
2018-Feb-21 06:30N 32°36' W 091°08'2 4.1
2018-Feb-21 06:00N 32°34' W 091°07'2 4.3
2018-Feb-21 05:30N 32°32' W 091°06'3 4.9
2018-Feb-21 04:59N 32°30' W 091°07'2 4.9
2018-Feb-21 04:30N 32°28' W 091°06'2 4.7
2018-Feb-21 04:00N 32°26' W 091°04'2 4.5
2018-Feb-21 03:30N 32°26' W 091°01'2 4.1
2018-Feb-21 03:00N 32°24' W 090°59'2 4.5
2018-Feb-21 02:30N 32°22' W 091°00'2 3.8
2018-Feb-21 02:01N 32°21' W 090°58'2 4.7
2018-Feb-21 01:30N 32°21' W 090°56'2 4.0
2018-Feb-21 01:00N 32°21' W 090°53'2 4.4
2018-Feb-21 00:30N 32°23' W 090°53'0 0.9
2018-Feb-21 00:00N 32°23' W 090°53'0 0.1
2018-Feb-20 23:30N 32°23' W 090°53'0 0.0
2018-Feb-20 23:00N 32°23' W 090°53'0 0.0
2018-Feb-20 22:30N 32°23' W 090°53'0 0.0
2018-Feb-20 22:00N 32°23' W 090°53'0 0.0
2018-Feb-20 21:30N 32°23' W 090°53'0 0.0
2018-Feb-20 21:00N 32°23' W 090°53'0 0.0
2018-Feb-20 20:30N 32°23' W 090°53'0 0.0
2018-Feb-20 20:00N 32°23' W 090°53'0 0.0
2018-Feb-20 19:30N 32°23' W 090°53'0 0.0
2018-Feb-20 19:00N 32°23' W 090°53'0 0.0
2018-Feb-20 18:30N 32°23' W 090°53'0 0.0
2018-Feb-20 18:00N 32°23' W 090°53'0 0.0
2018-Feb-20 17:30N 32°23' W 090°53'0 0.0
2018-Feb-20 17:00N 32°23' W 090°53'0 0.0
2018-Feb-20 16:30N 32°23' W 090°53'0 0.0
2018-Feb-20 16:00N 32°23' W 090°53'0 0.0
2018-Feb-20 15:30N 32°23' W 090°53'0 0.0
2018-Feb-20 15:00N 32°23' W 090°53'0 0.0
2018-Feb-20 14:30N 32°23' W 090°53'0 0.0
2018-Feb-20 14:00N 32°23' W 090°53'0 0.0
2018-Feb-20 13:30N 32°23' W 090°53'0 0.0
2018-Feb-20 13:00N 32°23' W 090°53'0 0.0
2018-Feb-20 12:30N 32°23' W 090°53'0 0.0
2018-Feb-20 11:59N 32°23' W 090°53'0 0.0
2018-Feb-20 11:30N 32°23' W 090°53'0 0.0
2018-Feb-20 11:00N 32°23' W 090°53'0 0.0
2018-Feb-20 10:30N 32°23' W 090°53'0 0.0
2018-Feb-20 10:00N 32°23' W 090°53'0 0.0
2018-Feb-20 09:30N 32°23' W 090°53'0 0.0
2018-Feb-20 09:00N 32°23' W 090°53'0 0.0
2018-Feb-20 08:30N 32°23' W 090°53'0 0.0
2018-Feb-20 08:00N 32°23' W 090°53'0 0.0
2018-Feb-20 07:30N 32°23' W 090°53'0 0.0
2018-Feb-20 07:00N 32°23' W 090°53'0 0.0
2018-Feb-20 06:29N 32°23' W 090°53'0 0.0
2018-Feb-20 06:00N 32°23' W 090°53'0 0.0
2018-Feb-20 05:28N 32°23' W 090°53'0 0.0
2018-Feb-20 05:00N 32°23' W 090°53'0 0.0
2018-Feb-20 04:26N 32°23' W 090°53'0 0.0
2018-Feb-20 04:00N 32°23' W 090°53'0 0.0
2018-Feb-20 03:30N 32°23' W 090°53'0 0.0
2018-Feb-20 02:59N 32°23' W 090°53'0 0.0
2018-Feb-20 02:30N 32°23' W 090°53'0 0.0
2018-Feb-20 02:00N 32°23' W 090°53'0 0.0
2018-Feb-20 01:30N 32°23' W 090°53'0 0.0
2018-Feb-20 01:00N 32°23' W 090°53'0 0.0
2018-Feb-20 00:30N 32°23' W 090°53'0 1.0
2018-Feb-20 00:00N 32°23' W 090°53'2 3.3
2018-Feb-19 23:30N 32°21' W 090°53'2 3.1
2018-Feb-19 23:00N 32°20' W 090°54'1 2.4
2018-Feb-19 22:30N 32°21' W 090°55'2 3.3
2018-Feb-19 22:00N 32°21' W 090°57'4 8.1
2018-Feb-19 21:30N 32°24' W 090°60'611.8
2018-Feb-19 21:00N 32°27' W 091°06'  

Dump ship's entire track history